Time;durP1;ratioP1;P1;durP2;ratioP2;P2;SDS_P1;SDS_P2;PMS_P1;PMS_P2;Temp;Humidity;BMP_temperature;BMP_pressure;BME280_temperature;BME280_humidity;BME280_pressure;Samples;Min_cycle;Max_cycle;Signal;HPM_P1;HPM_P2
2022/09/26 00:00:40;;;;;;;3.55;1.70;;;;;;;;;;4967651;28;20031;-88
2022/09/26 00:03:05;;;;;;;4.65;1.80;;;;;;;;;;4965829;28;20019;-86
2022/09/26 00:05:34;;;;;;;6.35;1.90;;;;;;;;;;4968265;28;20070;-87
2022/09/26 00:07:59;;;;;;;4.38;1.80;;;;;;;;;;4967332;28;20047;-86
2022/09/26 00:10:24;;;;;;;4.63;2.08;;;;;;;;;;4971398;28;20090;-87
2022/09/26 00:12:50;;;;;;;3.60;1.60;;;;;;;;;;4971478;28;20035;-85
2022/09/26 00:15:15;;;;;;;4.40;2.08;;;;;;;;;;4973906;28;20094;-85
2022/09/26 00:17:41;;;;;;;5.72;1.95;;;;;;;;;;4969633;28;20023;-87
2022/09/26 00:20:07;;;;;;;6.88;2.10;;;;;;;;;;4973064;28;20027;-86
2022/09/26 00:22:32;;;;;;;4.80;1.92;;;;;;;;;;4967680;28;20030;-87
2022/09/26 00:24:58;;;;;;;5.40;2.00;;;;;;;;;;4978774;28;20089;-87
2022/09/26 00:27:23;;;;;;;5.00;1.77;;;;;;;;;;4983793;28;20023;-87
2022/09/26 00:29:48;;;;;;;4.35;1.80;;;;;;;;;;4984571;28;20023;-87
2022/09/26 00:32:14;;;;;;;5.05;2.05;;;;;;;;;;4984074;28;20025;-82
2022/09/26 00:34:39;;;;;;;6.93;1.92;;;;;;;;;;4984295;28;20074;-82
2022/09/26 00:37:05;;;;;;;4.90;1.90;;;;;;;;;;4983477;28;20101;-88
2022/09/26 00:39:30;;;;;;;6.05;2.00;;;;;;;;;;4983930;28;20027;-87
2022/09/26 00:41:55;;;;;;;4.55;1.90;;;;;;;;;;4982418;28;20066;-85
2022/09/26 00:44:36;;;;;;;5.18;1.70;;;;;;;;;;4978746;28;20038;-80
2022/09/26 00:47:02;;;;;;;4.57;1.88;;;;;;;;;;4982789;28;20478;-82
2022/09/26 00:49:32;;;;;;;4.90;1.83;;;;;;;;;;4981965;28;20027;-88
2022/09/26 00:52:00;;;;;;;3.53;1.80;;;;;;;;;;4979296;28;20346;-87
2022/09/26 00:54:28;;;;;;;5.65;1.83;;;;;;;;;;4975803;28;20019;-87
2022/09/26 00:56:57;;;;;;;4.10;1.80;;;;;;;;;;4983112;28;20050;-83
2022/09/26 00:59:30;;;;;;;5.82;2.00;;;;;;;;;;4980836;28;20105;-81
2022/09/26 01:01:58;;;;;;;5.85;1.80;;;;;;;;;;4976429;28;20054;-83
2022/09/26 01:04:27;;;;;;;8.05;1.90;;;;;;;;;;4982180;28;20031;-85
2022/09/26 01:06:55;;;;;;;3.90;1.70;;;;;;;;;;4982524;28;20291;-84
2022/09/26 01:09:21;;;;;;;4.00;1.70;;;;;;;;;;4977279;28;20042;-87
2022/09/26 01:11:46;;;;;;;4.63;1.60;;;;;;;;;;4983341;28;20034;-81
2022/09/26 01:14:12;;;;;;;3.85;1.80;;;;;;;;;;4976542;28;20062;-87
2022/09/26 01:16:41;;;;;;;4.70;1.70;;;;;;;;;;4983526;28;20202;-86
2022/09/26 01:19:27;;;;;;;4.05;1.60;;;;;;;;;;4982787;28;20105;-85
2022/09/26 01:22:11;;;;;;;3.15;1.55;;;;;;;;;;4979776;28;20042;-86
2022/09/26 01:24:51;;;;;;;3.78;1.60;;;;;;;;;;4980390;28;20019;-86
2022/09/26 01:27:22;;;;;;;7.20;1.98;;;;;;;;;;4981952;28;20038;-86
2022/09/26 01:30:20;;;;;;;5.40;1.60;;;;;;;;;;4987184;28;20097;-85
2022/09/26 01:33:11;;;;;;;6.05;1.60;;;;;;;;;;4980787;28;20034;-85
2022/09/26 01:35:48;;;;;;;3.50;1.52;;;;;;;;;;4978037;28;20022;-81
2022/09/26 01:38:49;;;;;;;5.35;1.60;;;;;;;;;;4983089;28;20319;-85
2022/09/26 01:41:42;;;;;;;4.43;1.60;;;;;;;;;;4977152;28;20018;-87
2022/09/26 01:44:14;;;;;;;5.28;1.50;;;;;;;;;;4979262;28;20042;-87
2022/09/26 01:46:52;;;;;;;3.92;1.50;;;;;;;;;;4981736;28;20034;-86
2022/09/26 01:49:24;;;;;;;4.25;1.60;;;;;;;;;;4981883;28;20033;-87
2022/09/26 01:51:58;;;;;;;3.53;1.45;;;;;;;;;;4982804;28;20034;-86
2022/09/26 01:54:40;;;;;;;9.53;2.17;;;;;;;;;;4975129;28;20587;-83
2022/09/26 01:57:09;;;;;;;5.13;1.80;;;;;;;;;;4980451;28;20377;-86
2022/09/26 01:59:44;;;;;;;5.20;1.50;;;;;;;;;;4980214;28;20107;-83
2022/09/26 02:02:25;;;;;;;5.43;1.75;;;;;;;;;;4971851;28;20038;-80
2022/09/26 02:04:55;;;;;;;7.47;2.00;;;;;;;;;;4972298;28;20090;-87
2022/09/26 02:07:30;;;;;;;5.55;2.30;;;;;;;;;;4969703;28;20023;-84
2022/09/26 02:10:06;;;;;;;5.78;2.20;;;;;;;;;;4968253;28;20051;-85
2022/09/26 02:12:38;;;;;;;5.88;2.13;;;;;;;;;;4965255;28;20034;-82
2022/09/26 02:15:09;;;;;;;6.97;2.38;;;;;;;;;;4968813;28;20035;-85
2022/09/26 02:17:40;;;;;;;5.53;2.10;;;;;;;;;;4968504;28;20066;-86
2022/09/26 02:20:13;;;;;;;5.32;2.00;;;;;;;;;;4982840;28;20030;-87
2022/09/26 02:22:39;;;;;;;5.50;1.50;;;;;;;;;;4974719;28;20026;-84
2022/09/26 02:25:06;;;;;;;4.05;1.73;;;;;;;;;;4969028;28;20026;-86
2022/09/26 02:27:31;;;;;;;4.22;2.00;;;;;;;;;;4968994;28;20023;-84
2022/09/26 02:29:57;;;;;;;4.85;1.60;;;;;;;;;;4967507;28;20226;-87
2022/09/26 02:32:28;;;;;;;3.95;1.60;;;;;;;;;;4969722;28;20042;-86
2022/09/26 02:34:55;;;;;;;5.93;1.70;;;;;;;;;;4967493;28;20022;-87
2022/09/26 02:37:21;;;;;;;3.67;1.50;;;;;;;;;;4969034;28;20074;-87
2022/09/26 02:39:49;;;;;;;4.18;1.60;;;;;;;;;;4976290;28;20030;-87
2022/09/26 02:42:23;;;;;;;3.63;1.30;;;;;;;;;;4982141;28;20307;-87
2022/09/26 02:45:04;;;;;;;5.65;1.50;;;;;;;;;;4982270;28;20038;-83
2022/09/26 02:47:56;;;;;;;3.47;1.35;;;;;;;;;;4979886;28;20219;-82
2022/09/26 02:50:36;;;;;;;5.38;1.70;;;;;;;;;;4980983;28;20038;-85
2022/09/26 02:53:47;;;;;;;4.40;1.38;;;;;;;;;;4981345;28;20034;-85
2022/09/26 02:56:28;;;;;;;8.02;1.60;;;;;;;;;;4988613;28;20337;-85
2022/09/26 02:59:08;;;;;;;4.63;1.40;;;;;;;;;;4979607;28;20045;-88
2022/09/26 03:02:00;;;;;;;6.30;1.50;;;;;;;;;;4981978;28;20023;-87
2022/09/26 03:04:53;;;;;;;5.20;1.42;;;;;;;;;;4977837;28;20258;-88
2022/09/26 03:07:31;;;;;;;2.60;1.30;;;;;;;;;;4980914;28;20121;-88
2022/09/26 03:10:00;;;;;;;3.80;1.40;;;;;;;;;;4981362;28;20069;-83
2022/09/26 03:12:28;;;;;;;6.30;1.60;;;;;;;;;;4981626;28;20246;-86
2022/09/26 03:14:55;;;;;;;4.53;1.40;;;;;;;;;;4979344;28;20033;-87
2022/09/26 03:17:21;;;;;;;4.38;1.40;;;;;;;;;;4981418;28;20326;-86
2022/09/26 03:19:58;;;;;;;2.75;1.42;;;;;;;;;;4981387;28;20022;-86
2022/09/26 03:22:24;;;;;;;3.67;1.40;;;;;;;;;;4978879;28;20026;-88
2022/09/26 03:24:50;;;;;;;4.15;1.60;;;;;;;;;;4980324;28;20065;-88
2022/09/26 03:27:17;;;;;;;4.15;1.40;;;;;;;;;;4981641;28;20019;-87
2022/09/26 03:29:42;;;;;;;3.72;1.58;;;;;;;;;;4980310;28;20023;-86
2022/09/26 03:32:08;;;;;;;4.10;1.50;;;;;;;;;;4980539;28;20023;-83
2022/09/26 03:34:34;;;;;;;3.78;1.50;;;;;;;;;;4981232;28;20434;-79
2022/09/26 03:36:59;;;;;;;3.75;1.60;;;;;;;;;;4981171;28;20142;-84
2022/09/26 03:39:24;;;;;;;5.53;1.42;;;;;;;;;;4981444;28;20027;-89
2022/09/26 03:41:50;;;;;;;5.05;1.48;;;;;;;;;;4981376;28;20039;-88
2022/09/26 03:44:16;;;;;;;4.45;1.80;;;;;;;;;;4985023;28;20019;-87
2022/09/26 03:46:44;;;;;;;6.80;1.85;;;;;;;;;;4984389;28;20030;-86
2022/09/26 03:49:10;;;;;;;4.65;1.40;;;;;;;;;;4985060;28;20026;-85
2022/09/26 03:51:36;;;;;;;4.10;1.40;;;;;;;;;;4983544;28;20217;-87
2022/09/26 03:54:01;;;;;;;4.30;1.33;;;;;;;;;;4984533;28;20015;-82
2022/09/26 03:56:27;;;;;;;4.10;1.60;;;;;;;;;;4983720;28;20030;-82
2022/09/26 03:58:52;;;;;;;3.63;1.50;;;;;;;;;;4981815;28;20035;-84
2022/09/26 04:01:20;;;;;;;3.65;1.40;;;;;;;;;;4985211;28;20019;-86
2022/09/26 04:03:47;;;;;;;4.05;1.40;;;;;;;;;;4984316;28;20023;-86
2022/09/26 04:06:18;;;;;;;6.07;1.60;;;;;;;;;;4984482;28;20026;-86
2022/09/26 04:08:45;;;;;;;5.85;1.50;;;;;;;;;;4984701;28;20034;-86
2022/09/26 04:11:13;;;;;;;6.82;1.50;;;;;;;;;;4978259;28;20038;-86
2022/09/26 04:13:39;;;;;;;4.65;1.40;;;;;;;;;;4984620;28;20026;-87
2022/09/26 04:16:06;;;;;;;3.88;1.33;;;;;;;;;;4984619;28;20082;-88
2022/09/26 04:18:33;;;;;;;6.30;1.50;;;;;;;;;;4982793;28;20038;-88
2022/09/26 04:21:04;;;;;;;3.40;1.63;;;;;;;;;;4984153;28;20090;-87
2022/09/26 04:23:32;;;;;;;5.97;1.48;;;;;;;;;;4983493;28;20037;-87
2022/09/26 04:26:06;;;;;;;3.33;1.50;;;;;;;;;;4977893;28;20054;-87
2022/09/26 04:28:32;;;;;;;10.85;1.52;;;;;;;;;;4983483;28;20068;-88
2022/09/26 04:30:58;;;;;;;3.42;1.40;;;;;;;;;;4984256;28;20342;-83
2022/09/26 04:33:24;;;;;;;3.40;1.30;;;;;;;;;;4979186;28;20052;-86
2022/09/26 04:35:49;;;;;;;3.72;1.20;;;;;;;;;;4983938;28;20058;-88
2022/09/26 04:38:14;;;;;;;3.17;1.40;;;;;;;;;;4984415;28;20030;-82
2022/09/26 04:40:40;;;;;;;4.95;1.60;;;;;;;;;;4982990;28;20033;-85
2022/09/26 04:43:05;;;;;;;4.80;1.92;;;;;;;;;;4984191;28;20015;-87
2022/09/26 04:45:30;;;;;;;5.15;1.77;;;;;;;;;;4984115;28;20035;-86
2022/09/26 04:47:56;;;;;;;5.93;1.73;;;;;;;;;;4983718;28;20034;-86
2022/09/26 04:50:21;;;;;;;5.18;1.50;;;;;;;;;;4982303;28;20050;-79
2022/09/26 04:52:46;;;;;;;4.82;1.88;;;;;;;;;;4984232;28;20495;-83
2022/09/26 04:55:12;;;;;;;5.28;1.40;;;;;;;;;;4981715;28;20093;-85
2022/09/26 04:57:37;;;;;;;4.30;1.50;;;;;;;;;;4983928;28;20026;-79
2022/09/26 05:00:06;;;;;;;3.10;1.45;;;;;;;;;;4983760;28;20421;-85
2022/09/26 05:02:32;;;;;;;4.13;1.50;;;;;;;;;;4983408;28;20030;-85
2022/09/26 05:04:58;;;;;;;5.40;1.40;;;;;;;;;;4983420;28;20023;-83
2022/09/26 05:07:26;;;;;;;5.72;1.45;;;;;;;;;;4982402;28;20031;-82
2022/09/26 05:09:52;;;;;;;4.88;1.35;;;;;;;;;;4979136;28;20346;-86
2022/09/26 05:12:17;;;;;;;4.72;1.67;;;;;;;;;;4983479;28;20038;-88
2022/09/26 05:14:43;;;;;;;3.33;1.50;;;;;;;;;;4982327;28;20389;-87
2022/09/26 05:17:10;;;;;;;4.75;1.67;;;;;;;;;;4983253;28;20035;-84
2022/09/26 05:19:35;;;;;;;7.47;1.58;;;;;;;;;;4983083;28;20089;-84
2022/09/26 05:22:00;;;;;;;6.93;1.50;;;;;;;;;;4983212;28;20027;-87
2022/09/26 05:27:09;;;;;;;5.65;1.60;;;;;;;;;;4981062;28;20223;-85
2022/09/26 05:29:35;;;;;;;5.45;1.50;;;;;;;;;;4983271;28;20382;-84
2022/09/26 05:32:00;;;;;;;2.92;1.40;;;;;;;;;;4983138;28;20034;-86
2022/09/26 05:34:25;;;;;;;4.72;1.60;;;;;;;;;;4982969;28;20023;-85
2022/09/26 05:36:52;;;;;;;2.97;1.45;;;;;;;;;;4983169;28;20045;-82
2022/09/26 05:42:04;;;;;;;4.55;1.70;;;;;;;;;;4983129;28;20037;-85
2022/09/26 05:44:30;;;;;;;4.53;1.48;;;;;;;;;;4980007;28;20089;-84
2022/09/26 05:46:56;;;;;;;3.13;1.40;;;;;;;;;;4982098;28;20058;-83
2022/09/26 05:49:21;;;;;;;3.55;1.50;;;;;;;;;;4982564;28;20077;-82
2022/09/26 05:51:47;;;;;;;4.47;1.80;;;;;;;;;;4982202;28;20027;-82
2022/09/26 05:54:12;;;;;;;4.50;1.52;;;;;;;;;;4982968;28;20022;-86
2022/09/26 05:56:37;;;;;;;3.55;1.48;;;;;;;;;;4982588;28;20061;-87
2022/09/26 05:59:04;;;;;;;5.72;1.75;;;;;;;;;;4982694;28;20026;-86
2022/09/26 06:01:32;;;;;;;5.35;1.60;;;;;;;;;;4982069;28;20027;-87
2022/09/26 06:03:57;;;;;;;5.55;1.52;;;;;;;;;;4981509;28;20046;-87
2022/09/26 06:06:22;;;;;;;4.60;1.55;;;;;;;;;;4981170;28;20421;-81
2022/09/26 06:08:48;;;;;;;5.78;1.40;;;;;;;;;;4980337;28;20054;-82
2022/09/26 06:11:21;;;;;;;4.22;1.40;;;;;;;;;;4982020;28;20026;-84
2022/09/26 06:13:48;;;;;;;2.75;1.40;;;;;;;;;;4980360;28;20019;-81
2022/09/26 06:16:18;;;;;;;5.05;1.50;;;;;;;;;;4980481;28;20297;-81
2022/09/26 06:18:45;;;;;;;3.40;1.50;;;;;;;;;;4981644;28;20037;-82
2022/09/26 06:21:15;;;;;;;8.18;1.58;;;;;;;;;;4981639;28;20034;-85
2022/09/26 06:23:41;;;;;;;4.15;1.55;;;;;;;;;;4979225;28;20019;-84
2022/09/26 06:26:10;;;;;;;5.38;1.65;;;;;;;;;;4982029;28;20144;-84
2022/09/26 06:28:37;;;;;;;5.00;1.67;;;;;;;;;;4981822;28;20057;-83
2022/09/26 06:31:11;;;;;;;6.28;1.92;;;;;;;;;;4979611;28;20026;-84
2022/09/26 06:33:37;;;;;;;4.45;1.60;;;;;;;;;;4981998;28;20138;-85
2022/09/26 06:36:08;;;;;;;3.70;1.50;;;;;;;;;;4981164;28;20034;-82
2022/09/26 06:38:34;;;;;;;5.22;1.50;;;;;;;;;;4981637;28;20032;-82
2022/09/26 06:40:59;;;;;;;5.00;1.50;;;;;;;;;;4981627;28;20026;-85
2022/09/26 06:43:24;;;;;;;9.93;1.70;;;;;;;;;;4981512;28;20038;-84
2022/09/26 06:45:50;;;;;;;5.65;1.58;;;;;;;;;;4980630;28;20038;-85
2022/09/26 06:48:16;;;;;;;6.28;1.52;;;;;;;;;;4981543;28;20022;-85
2022/09/26 06:50:42;;;;;;;6.75;1.80;;;;;;;;;;4981126;28;20027;-85
2022/09/26 06:53:08;;;;;;;4.72;1.40;;;;;;;;;;4981401;28;20026;-81
2022/09/26 06:55:33;;;;;;;4.75;1.40;;;;;;;;;;4976980;28;20038;-81
2022/09/26 06:57:59;;;;;;;4.80;1.70;;;;;;;;;;4974165;28;20234;-80
2022/09/26 07:00:25;;;;;;;4.22;1.52;;;;;;;;;;4973884;28;20098;-84
2022/09/26 07:02:52;;;;;;;3.78;1.58;;;;;;;;;;4981205;28;20019;-83
2022/09/26 07:05:21;;;;;;;6.90;1.90;;;;;;;;;;4981147;28;20033;-84
2022/09/26 07:07:47;;;;;;;7.00;1.65;;;;;;;;;;4975599;28;20031;-84
2022/09/26 07:10:17;;;;;;;5.07;1.90;;;;;;;;;;4980504;28;20018;-82
2022/09/26 07:12:46;;;;;;;3.00;1.50;;;;;;;;;;4977157;28;20407;-80
2022/09/26 07:15:13;;;;;;;7.05;1.60;;;;;;;;;;4975524;28;20026;-81
2022/09/26 07:17:40;;;;;;;4.53;1.40;;;;;;;;;;4976223;28;20050;-81
2022/09/26 07:20:09;;;;;;;4.20;1.30;;;;;;;;;;4973752;28;20015;-81
2022/09/26 07:22:34;;;;;;;5.40;1.52;;;;;;;;;;4978662;28;20021;-80
2022/09/26 07:25:00;;;;;;;8.13;1.50;;;;;;;;;;4977642;28;20031;-81
2022/09/26 07:27:25;;;;;;;3.03;1.23;;;;;;;;;;4980006;28;20319;-81
2022/09/26 07:29:51;;;;;;;8.23;1.63;;;;;;;;;;4979933;28;20224;-81
2022/09/26 07:32:17;;;;;;;4.50;1.50;;;;;;;;;;4980379;28;20027;-80
2022/09/26 07:34:42;;;;;;;5.65;1.35;;;;;;;;;;4980708;28;20094;-81
2022/09/26 07:37:08;;;;;;;5.47;1.50;;;;;;;;;;4980802;28;20226;-81
2022/09/26 07:39:33;;;;;;;4.20;1.23;;;;;;;;;;4981860;28;20026;-81
2022/09/26 07:42:02;;;;;;;3.33;1.30;;;;;;;;;;4979036;28;20053;-81
2022/09/26 07:44:28;;;;;;;5.07;1.30;;;;;;;;;;4976290;28;20293;-81
2022/09/26 07:52:21;;;;;;;2.97;1.30;;;;;;;;;;4977186;28;20046;-81
2022/09/26 07:54:47;;;;;;;3.35;1.25;;;;;;;;;;4981203;28;20030;-80
2022/09/26 07:57:13;;;;;;;5.90;1.17;;;;;;;;;;4980784;28;20043;-80
2022/09/26 07:59:38;;;;;;;3.30;1.20;;;;;;;;;;4979848;28;20034;-81
2022/09/26 08:02:04;;;;;;;4.18;1.23;;;;;;;;;;4980999;28;20034;-80
2022/09/26 08:04:29;;;;;;;4.25;1.40;;;;;;;;;;4979894;28;20054;-80
2022/09/26 08:06:55;;;;;;;3.22;1.40;;;;;;;;;;4979828;28;20034;-80
2022/09/26 08:09:21;;;;;;;2.53;1.30;;;;;;;;;;4980379;28;20102;-80
2022/09/26 08:11:46;;;;;;;9.90;1.40;;;;;;;;;;4975220;28;20023;-80
2022/09/26 08:14:12;;;;;;;3.80;1.35;;;;;;;;;;4980313;28;20323;-80
2022/09/26 08:16:40;;;;;;;4.43;1.27;;;;;;;;;;4980916;28;20386;-81
2022/09/26 08:19:07;;;;;;;4.32;1.67;;;;;;;;;;4975980;28;20072;-82
2022/09/26 08:21:34;;;;;;;5.65;1.50;;;;;;;;;;4980586;28;20034;-80
2022/09/26 08:24:00;;;;;;;2.92;1.20;;;;;;;;;;4978793;28;20242;-81
2022/09/26 08:26:25;;;;;;;2.58;1.25;;;;;;;;;;4981135;28;20023;-80
2022/09/26 08:28:51;;;;;;;2.50;1.27;;;;;;;;;;4981353;28;20035;-80
2022/09/26 08:31:16;;;;;;;3.88;1.42;;;;;;;;;;4984447;28;20111;-79
2022/09/26 08:33:43;;;;;;;2.60;1.20;;;;;;;;;;4983853;28;20254;-79
2022/09/26 08:36:10;;;;;;;4.80;1.40;;;;;;;;;;4982072;28;20022;-79
2022/09/26 08:38:37;;;;;;;2.42;1.30;;;;;;;;;;4982595;28;20203;-79
2022/09/26 08:41:31;;;;;;;4.57;1.20;;;;;;;;;;4984067;28;20030;-80
2022/09/26 08:44:23;;;;;;;7.97;1.70;;;;;;;;;;4979055;28;20085;-80
2022/09/26 08:47:06;;;;;;;4.03;1.23;;;;;;;;;;4973519;28;20061;-79
2022/09/26 08:50:10;;;;;;;4.75;1.30;;;;;;;;;;4982196;28;20094;-78
2022/09/26 08:52:44;;;;;;;6.57;1.38;;;;;;;;;;4982237;28;20315;-80
2022/09/26 08:55:24;;;;;;;3.25;1.40;;;;;;;;;;4983472;28;20035;-80
2022/09/26 08:57:57;;;;;;;4.75;1.35;;;;;;;;;;4983918;28;20098;-80
2022/09/26 09:00:25;;;;;;;6.40;1.38;;;;;;;;;;4983627;28;20073;-80
2022/09/26 09:03:03;;;;;;;3.55;1.30;;;;;;;;;;4983027;28;20034;-80
2022/09/26 09:05:32;;;;;;;3.58;1.20;;;;;;;;;;4983753;28;20212;-80
2022/09/26 09:08:00;;;;;;;4.90;1.30;;;;;;;;;;4983393;28;20042;-80
2022/09/26 09:10:45;;;;;;;3.25;1.20;;;;;;;;;;4983679;28;20026;-80
2022/09/26 09:13:38;;;;;;;4.30;1.30;;;;;;;;;;4983836;28;20086;-80
2022/09/26 09:16:11;;;;;;;4.68;1.10;;;;;;;;;;4985065;28;20022;-81
2022/09/26 09:18:45;;;;;;;4.28;1.30;;;;;;;;;;4982367;28;20098;-81
2022/09/26 09:21:23;;;;;;;3.72;1.20;;;;;;;;;;4983771;28;20037;-80
2022/09/26 09:23:54;;;;;;;6.97;1.33;;;;;;;;;;4983155;28;20022;-84
2022/09/26 09:26:58;;;;;;;2.58;1.20;;;;;;;;;;4984043;28;20031;-81
2022/09/26 09:29:48;;;;;;;3.92;1.00;;;;;;;;;;4966056;28;20149;-82
2022/09/26 09:32:19;;;;;;;3.25;1.05;;;;;;;;;;4992191;28;20023;-85
2022/09/26 09:34:48;;;;;;;3.15;1.17;;;;;;;;;;4979317;28;20078;-79
2022/09/26 09:37:39;;;;;;;3.35;1.10;;;;;;;;;;4977763;28;20106;-82
2022/09/26 09:40:10;;;;;;;3.05;1.13;;;;;;;;;;4980048;28;20018;-81
2022/09/26 09:42:44;;;;;;;5.15;1.35;;;;;;;;;;4983029;28;20025;-82
2022/09/26 09:45:22;;;;;;;3.22;1.20;;;;;;;;;;4982126;28;20027;-83
2022/09/26 09:47:48;;;;;;;4.13;1.35;;;;;;;;;;4983253;28;20054;-82
2022/09/26 09:50:20;;;;;;;3.90;1.10;;;;;;;;;;4982893;28;20026;-81
2022/09/26 09:53:05;;;;;;;4.75;1.27;;;;;;;;;;4976702;28;20018;-82
2022/09/26 09:56:06;;;;;;;3.15;1.20;;;;;;;;;;4982787;28;20026;-81
2022/09/26 09:58:51;;;;;;;4.57;1.30;;;;;;;;;;4982904;28;20039;-82
2022/09/26 10:01:29;;;;;;;4.65;1.40;;;;;;;;;;4978677;28;20129;-81
2022/09/26 10:04:03;;;;;;;5.50;1.30;;;;;;;;;;4981034;28;20026;-80
2022/09/26 10:06:31;;;;;;;5.00;1.13;;;;;;;;;;4982323;28;20177;-81
2022/09/26 10:08:56;;;;;;;4.55;1.23;;;;;;;;;;4980326;28;20062;-81
2022/09/26 10:11:40;;;;;;;4.13;1.40;;;;;;;;;;4982509;28;20023;-80
2022/09/26 10:14:12;;;;;;;2.63;1.10;;;;;;;;;;4982729;28;20322;-78
2022/09/26 10:17:08;;;;;;;7.10;1.20;;;;;;;;;;4978885;28;20082;-80
2022/09/26 10:19:37;;;;;;;;;;;;;;;;;;4982664;28;20042;-80
2022/09/26 10:22:16;;;;;;;2.20;1.00;;;;;;;;;;4982389;28;19909;-80
2022/09/26 10:24:45;;;;;;;5.15;1.10;;;;;;;;;;4982420;28;20022;-81
2022/09/26 10:27:22;;;;;;;3.85;1.20;;;;;;;;;;4980718;28;20303;-82
2022/09/26 10:29:58;;;;;;;3.20;1.10;;;;;;;;;;4976068;28;20041;-81
2022/09/26 10:32:24;;;;;;;3.35;1.10;;;;;;;;;;4982072;28;20018;-81
2022/09/26 10:35:24;;;;;;;4.65;1.20;;;;;;;;;;4982332;28;20022;-80
2022/09/26 10:38:06;;;;;;;3.95;1.10;;;;;;;;;;4960117;28;20204;-80
2022/09/26 10:40:44;;;;;;;4.90;1.10;;;;;;;;;;4982655;28;20299;-81
2022/09/26 10:43:21;;;;;;;2.08;1.10;;;;;;;;;;4977780;28;20254;-81
2022/09/26 10:45:54;;;;;;;9.07;1.40;;;;;;;;;;4982433;28;20300;-79
2022/09/26 10:48:25;;;;;;;4.05;0.90;;;;;;;;;;4982199;28;20338;-81
2022/09/26 10:50:54;;;;;;;6.22;1.30;;;;;;;;;;4982072;28;20027;-82
2022/09/26 10:53:22;;;;;;;2.78;1.10;;;;;;;;;;4981752;28;20043;-81
2022/09/26 10:56:01;;;;;;;4.53;1.10;;;;;;;;;;4982136;28;20357;-82
2022/09/26 10:58:28;;;;;;;4.22;1.20;;;;;;;;;;4981315;28;20369;-81
2022/09/26 11:00:56;;;;;;;3.90;1.00;;;;;;;;;;4981270;28;20042;-81
2022/09/26 11:03:43;;;;;;;2.20;1.10;;;;;;;;;;4981543;28;20031;-81
2022/09/26 11:06:30;;;;;;;4.70;1.15;;;;;;;;;;4977107;28;20026;-79
2022/09/26 11:08:59;;;;;;;3.80;1.20;;;;;;;;;;4981777;28;20046;-80
2022/09/26 11:11:26;;;;;;;2.85;1.05;;;;;;;;;;4981919;28;20022;-82
2022/09/26 11:13:55;;;;;;;3.42;1.40;;;;;;;;;;4980648;28;20027;-80
2022/09/26 11:16:20;;;;;;;4.45;1.15;;;;;;;;;;4981798;28;20026;-81
2022/09/26 11:19:16;;;;;;;7.30;1.20;;;;;;;;;;4981349;28;20073;-81
2022/09/26 11:21:56;;;;;;;6.03;1.37;;;;;;;;;;4976788;28;20026;-82
2022/09/26 11:24:36;;;;;;;2.80;1.20;;;;;;;;;;4978060;28;20035;-80
2022/09/26 11:27:42;;;;;;;5.43;1.40;;;;;;;;;;4981451;28;20045;-82
2022/09/26 11:30:11;;;;;;;;;;;;;;;;;;4979035;28;20038;-80
2022/09/26 11:32:42;;;;;;;3.50;1.25;;;;;;;;;;4981265;28;19918;-81
2022/09/26 11:35:19;;;;;;;5.43;1.35;;;;;;;;;;4980631;28;20349;-81
2022/09/26 11:38:22;;;;;;;4.35;1.25;;;;;;;;;;4975710;28;20246;-81
2022/09/26 11:40:56;;;;;;;4.47;1.40;;;;;;;;;;4980831;28;20057;-81
2022/09/26 11:43:31;;;;;;;3.22;1.35;;;;;;;;;;4979247;28;20027;-81
2022/09/26 11:46:34;;;;;;;5.22;1.35;;;;;;;;;;4980908;28;20046;-79
2022/09/26 11:49:30;;;;;;;3.53;1.40;;;;;;;;;;4981096;28;20061;-79
2022/09/26 11:52:22;;;;;;;2.97;1.30;;;;;;;;;;4981472;28;20050;-80
2022/09/26 11:54:58;;;;;;;4.53;1.17;;;;;;;;;;4980476;28;20043;-79
2022/09/26 11:57:36;;;;;;;5.85;1.70;;;;;;;;;;4978906;28;20041;-78
2022/09/26 12:00:23;;;;;;;2.78;1.30;;;;;;;;;;4981623;28;20033;-77
2022/09/26 12:03:12;;;;;;;9.10;1.38;;;;;;;;;;4976704;28;20039;-78
2022/09/26 12:05:53;;;;;;;5.32;1.70;;;;;;;;;;4982814;28;20074;-76
2022/09/26 12:08:24;;;;;;;3.60;1.52;;;;;;;;;;4985031;28;20109;-76
2022/09/26 12:10:49;;;;;;;5.72;1.80;;;;;;;;;;4985153;28;20251;-76
2022/09/26 12:13:38;;;;;;;3.08;1.58;;;;;;;;;;4985012;28;20023;-75
2022/09/26 12:16:11;;;;;;;8.77;1.85;;;;;;;;;;4981113;28;20206;-76
2022/09/26 12:18:55;;;;;;;4.00;1.80;;;;;;;;;;4984834;28;20038;-77
2022/09/26 12:21:33;;;;;;;4.80;1.80;;;;;;;;;;4985021;28;20034;-75
2022/09/26 12:24:22;;;;;;;4.35;1.98;;;;;;;;;;4984871;28;20019;-76
2022/09/26 12:27:17;;;;;;;6.45;2.25;;;;;;;;;;4980959;28;20029;-75
2022/09/26 12:29:48;;;;;;;6.72;2.08;;;;;;;;;;4984585;28;20047;-75
2022/09/26 12:32:30;;;;;;;4.68;2.13;;;;;;;;;;4984794;28;20303;-76
2022/09/26 12:35:33;;;;;;;7.30;2.20;;;;;;;;;;4979909;28;20023;-75
2022/09/26 12:38:27;;;;;;;8.45;2.25;;;;;;;;;;4984589;28;20438;-74
2022/09/26 12:41:01;;;;;;;7.28;2.20;;;;;;;;;;4984527;28;20086;-75
2022/09/26 12:44:01;;;;;;;8.60;2.20;;;;;;;;;;4984338;28;20027;-75
2022/09/26 12:46:49;;;;;;;4.20;2.20;;;;;;;;;;4979894;28;20023;-74
2022/09/26 12:49:33;;;;;;;9.43;2.70;;;;;;;;;;4977811;28;20038;-75
2022/09/26 12:52:05;;;;;;;10.00;2.50;;;;;;;;;;4984545;28;20046;-74
2022/09/26 12:55:01;;;;;;;5.80;2.47;;;;;;;;;;4984318;28;20035;-74
2022/09/26 12:57:51;;;;;;;7.28;2.60;;;;;;;;;;4982358;28;20045;-75
2022/09/26 13:00:20;;;;;;;3.17;2.00;;;;;;;;;;4982889;28;20373;-76
2022/09/26 13:03:04;;;;;;;3.92;2.10;;;;;;;;;;4984189;28;20050;-76
2022/09/26 13:05:45;;;;;;;5.40;2.35;;;;;;;;;;4983828;28;20054;-76
2022/09/26 13:08:18;;;;;;;8.70;3.00;;;;;;;;;;4983879;28;20411;-76
2022/09/26 13:11:06;;;;;;;5.35;2.40;;;;;;;;;;4983184;28;20070;-75
2022/09/26 13:13:56;;;;;;;4.65;2.38;;;;;;;;;;4979832;28;20318;-76
2022/09/26 13:16:56;;;;;;;4.65;2.17;;;;;;;;;;4976734;28;20319;-75
2022/09/26 13:19:47;;;;;;;5.45;2.30;;;;;;;;;;4979804;28;20038;-76
2022/09/26 13:22:23;;;;;;;4.22;2.10;;;;;;;;;;4983826;28;20022;-75
2022/09/26 13:25:10;;;;;;;4.68;2.20;;;;;;;;;;4983677;28;20226;-75
2022/09/26 13:27:42;;;;;;;2.97;1.80;;;;;;;;;;4983263;28;20027;-75
2022/09/26 13:30:11;;;;;;;4.85;2.15;;;;;;;;;;4984007;28;20089;-76
2022/09/26 13:32:52;;;;;;;4.30;2.00;;;;;;;;;;4983391;28;20262;-76
2022/09/26 13:35:23;;;;;;;3.85;2.15;;;;;;;;;;4981923;28;20354;-76
2022/09/26 13:38:08;;;;;;;3.83;1.80;;;;;;;;;;4981714;28;20101;-75
2022/09/26 13:40:51;;;;;;;3.55;1.92;;;;;;;;;;4983656;28;20082;-76
2022/09/26 13:43:59;;;;;;;4.82;2.20;;;;;;;;;;4983111;28;20027;-76
2022/09/26 13:46:38;;;;;;;6.55;2.15;;;;;;;;;;4981162;28;20041;-77
2022/09/26 13:49:41;;;;;;;4.57;2.05;;;;;;;;;;4983015;28;20062;-76
2022/09/26 13:52:28;;;;;;;5.75;2.33;;;;;;;;;;4978147;28;20034;-75
2022/09/26 13:55:09;;;;;;;4.25;1.90;;;;;;;;;;4983088;28;20062;-76
2022/09/26 13:57:34;;;;;;;4.85;2.10;;;;;;;;;;4983018;28;20035;-77
2022/09/26 14:00:30;;;;;;;3.97;2.00;;;;;;;;;;4982588;28;20027;-76
2022/09/26 14:03:16;;;;;;;3.10;2.10;;;;;;;;;;4972347;28;20381;-76
2022/09/26 14:05:49;;;;;;;2.75;1.67;;;;;;;;;;4981553;28;20034;-76
2022/09/26 14:11:20;;;;;;;5.97;1.95;;;;;;;;;;4979190;28;20231;-75
2022/09/26 14:13:47;;;;;;;4.03;1.90;;;;;;;;;;4981291;28;20030;-76
2022/09/26 14:16:27;;;;;;;3.38;2.00;;;;;;;;;;4982690;28;20026;-76
2022/09/26 14:19:23;;;;;;;4.30;1.92;;;;;;;;;;4982071;28;20090;-75
2022/09/26 14:22:04;;;;;;;5.72;1.90;;;;;;;;;;4976039;28;20038;-75
2022/09/26 14:24:33;;;;;;;2.67;1.52;;;;;;;;;;4980874;28;20027;-75
2022/09/26 14:27:11;;;;;;;3.53;1.80;;;;;;;;;;4980894;28;20026;-75
2022/09/26 14:29:43;;;;;;;4.85;1.90;;;;;;;;;;4979143;28;20034;-76
2022/09/26 14:32:09;;;;;;;3.28;1.80;;;;;;;;;;4982414;28;20019;-77
2022/09/26 14:35:17;;;;;;;3.65;1.65;;;;;;;;;;4982072;28;20084;-76
2022/09/26 14:37:48;;;;;;;4.53;1.80;;;;;;;;;;4961545;28;20038;-76
2022/09/26 14:40:35;;;;;;;6.53;1.70;;;;;;;;;;4982213;28;20031;-76
2022/09/26 14:43:18;;;;;;;4.60;1.90;;;;;;;;;;4977483;28;20023;-77
2022/09/26 14:46:00;;;;;;;4.13;1.92;;;;;;;;;;4982107;28;20037;-76
2022/09/26 14:48:25;;;;;;;2.85;1.83;;;;;;;;;;4982139;28;20033;-77
2022/09/26 14:51:22;;;;;;;3.35;1.83;;;;;;;;;;4981869;28;20207;-77
2022/09/26 14:53:59;;;;;;;3.13;1.95;;;;;;;;;;4976418;28;20054;-77
2022/09/26 14:56:31;;;;;;;4.05;1.90;;;;;;;;;;4980939;28;20022;-77
2022/09/26 14:59:15;;;;;;;2.40;1.40;;;;;;;;;;4977193;28;20038;-77
2022/09/26 15:01:42;;;;;;;1.70;1.00;;;;;;;;;;4981561;28;20035;-77
2022/09/26 15:04:15;;;;;;;2.30;1.10;;;;;;;;;;4980952;28;20058;-77
2022/09/26 15:06:45;;;;;;;2.35;1.38;;;;;;;;;;4981241;28;20027;-77
2022/09/26 15:09:18;;;;;;;5.60;1.50;;;;;;;;;;4976373;28;20578;-77
2022/09/26 15:11:50;;;;;;;1.80;1.10;;;;;;;;;;4981120;28;20031;-77
2022/09/26 15:14:30;;;;;;;2.35;1.10;;;;;;;;;;4975275;28;20023;-77
2022/09/26 15:16:58;;;;;;;2.67;1.30;;;;;;;;;;4981392;28;20027;-77
2022/09/26 15:19:33;;;;;;;3.35;1.42;;;;;;;;;;4981382;28;20046;-77
2022/09/26 15:22:18;;;;;;;;;;;;;;;;;;4980795;28;20378;-77
2022/09/26 15:24:44;;;;;;;3.20;1.67;;;;;;;;;;4978017;28;20129;-77
2022/09/26 15:27:17;;;;;;;3.33;1.63;;;;;;;;;;4979923;28;20308;-77
2022/09/26 15:29:45;;;;;;;3.85;1.90;;;;;;;;;;4980400;28;20023;-76
2022/09/26 15:32:18;;;;;;;4.05;1.60;;;;;;;;;;4980621;28;20219;-76
2022/09/26 15:34:45;;;;;;;2.78;1.70;;;;;;;;;;4974801;28;20129;-76